Terminal Aerodrome Forecast
Issued by NWS

Home | Current Version | Previous Version | Text Only | Print | Product List | Glossary On
Versions: 1 2 3 4 5 6 7 8 9 10 11 12 13 14 15 16 17 18 19
000
FTUS44 KTSA 021700
TAFFYV
TAF
KFYV 021740Z 0218/0318 08010KT P6SM BKN025
     FM022200 13009KT P6SM BKN015
     FM030400 16008KT 5SM BR OVC007
     FM030800 18009KT 3SM BR OVC007 PROB30 0308/0314 2SM -RA BR
      OVC004
     FM031400 19011KT 2SM BR VCSH OVC004=

USA.gov is the U.S. government's official web portal to all federal, state and local government web resources and services.